Time;durP1;ratioP1;P1;durP2;ratioP2;P2;SDS_P1;SDS_P2;PMS_P1;PMS_P2;Temp;Humidity;BMP_temperature;BMP_pressure;BME280_temperature;BME280_humidity;BME280_pressure;Samples;Min_cycle;Max_cycle;Signal;HPM_P1;HPM_P2
2021/01/08 00:04:19;;;;;;;17.30;11.07;;;;;;;;;;10484798;27;20035;-64
2021/01/08 00:09:17;;;;;;;20.38;11.20;;;;;;;;;;10484591;27;20045;-64
2021/01/08 00:14:14;;;;;;;28.02;16.58;;;;;;;;;;10484285;27;20070;-64
2021/01/08 00:19:13;;;;;;;20.85;12.38;;;;;;;;;;10482817;27;20578;-63
2021/01/08 00:24:10;;;;;;;4.32;3.67;;;;;;;;;;10483923;27;20042;-63
2021/01/08 00:29:08;;;;;;;16.48;10.52;;;;;;;;;;10483623;27;20054;-63
2021/01/08 00:34:06;;;;;;;16.20;9.93;;;;;;;;;;10483563;27;20053;-64
2021/01/08 00:39:05;;;;;;;26.42;13.77;;;;;;;;;;10483332;27;20066;-63
2021/01/08 00:44:02;;;;;;;23.33;12.65;;;;;;;;;;10482648;27;20539;-63
2021/01/08 00:49:00;;;;;;;20.63;12.73;;;;;;;;;;10482333;27;20078;-64
2021/01/08 00:53:58;;;;;;;18.20;11.20;;;;;;;;;;10482182;27;20050;-64
2021/01/08 00:58:58;;;;;;;7.03;4.72;;;;;;;;;;10464130;27;20078;-64
2021/01/08 01:03:55;;;;;;;15.85;10.70;;;;;;;;;;10481850;27;20069;-65
2021/01/08 01:08:53;;;;;;;30.25;15.40;;;;;;;;;;10482397;27;20049;-64
2021/01/08 01:13:51;;;;;;;6.97;4.80;;;;;;;;;;10482525;27;20046;-63
2021/01/08 01:18:50;;;;;;;4.22;2.97;;;;;;;;;;10482326;27;20070;-64
2021/01/08 01:23:47;;;;;;;6.95;3.47;;;;;;;;;;10482789;27;20034;-62
2021/01/08 01:28:45;;;;;;;13.63;7.60;;;;;;;;;;10483244;27;20039;-63
2021/01/08 01:33:43;;;;;;;8.40;6.20;;;;;;;;;;10482405;27;20055;-62
2021/01/08 01:38:42;;;;;;;9.43;7.15;;;;;;;;;;10481722;27;20079;-64
2021/01/08 01:43:40;;;;;;;16.20;9.90;;;;;;;;;;10481218;27;20468;-63
2021/01/08 01:48:37;;;;;;;10.05;6.75;;;;;;;;;;10482743;27;20043;-63
2021/01/08 01:53:35;;;;;;;13.15;7.07;;;;;;;;;;10481656;27;20077;-63
2021/01/08 01:58:33;;;;;;;11.38;6.28;;;;;;;;;;10482159;27;20097;-63
2021/01/08 02:03:33;;;;;;;6.47;4.60;;;;;;;;;;10487499;27;20081;-64
2021/01/08 02:08:30;;;;;;;25.33;12.50;;;;;;;;;;10489309;27;20075;-62
2021/01/08 02:13:30;;;;;;;24.48;12.68;;;;;;;;;;10489345;27;20487;-62
2021/01/08 02:18:29;;;;;;;14.93;8.02;;;;;;;;;;10489922;27;20042;-62
2021/01/08 02:23:33;;;;;;;29.13;14.50;;;;;;;;;;10488825;27;20039;-62
2021/01/08 02:28:31;;;;;;;25.30;12.82;;;;;;;;;;10489707;27;20053;-63
2021/01/08 02:33:29;;;;;;;15.18;8.27;;;;;;;;;;10488373;27;20039;-63
2021/01/08 02:38:26;;;;;;;10.82;5.88;;;;;;;;;;10488550;27;20521;-63
2021/01/08 02:43:24;;;;;;;14.60;9.65;;;;;;;;;;10487775;27;20078;-63
2021/01/08 02:48:23;;;;;;;11.45;7.45;;;;;;;;;;10487664;27;20058;-64
2021/01/08 02:53:22;;;;;;;22.35;12.38;;;;;;;;;;10487830;27;20407;-64
2021/01/08 02:58:20;;;;;;;28.20;15.48;;;;;;;;;;10488262;27;20058;-64
2021/01/08 03:03:17;;;;;;;37.33;20.00;;;;;;;;;;10487387;27;20499;-63
2021/01/08 03:08:15;;;;;;;15.75;9.55;;;;;;;;;;10486872;27;20522;-64
2021/01/08 03:13:14;;;;;;;15.43;8.05;;;;;;;;;;10486320;27;20513;-64
2021/01/08 03:18:11;;;;;;;17.13;8.93;;;;;;;;;;10487538;27;20046;-63
2021/01/08 03:23:09;;;;;;;4.90;3.70;;;;;;;;;;10486760;27;20058;-64
2021/01/08 03:28:07;;;;;;;5.07;4.20;;;;;;;;;;10487223;27;20395;-63
2021/01/08 03:33:04;;;;;;;7.22;4.20;;;;;;;;;;10486368;27;20051;-63
2021/01/08 03:38:02;;;;;;;20.38;10.40;;;;;;;;;;10486283;27;20050;-64
2021/01/08 03:42:59;;;;;;;15.85;10.27;;;;;;;;;;10486035;27;20055;-64
2021/01/08 03:47:57;;;;;;;28.63;18.40;;;;;;;;;;10485689;27;20047;-63
2021/01/08 03:52:55;;;;;;;20.33;13.98;;;;;;;;;;10486128;27;20045;-63
2021/01/08 03:57:52;;;;;;;17.58;14.07;;;;;;;;;;10484824;27;20050;-64
2021/01/08 04:02:49;;;;;;;30.45;26.10;;;;;;;;;;10485927;27;20089;-63
2021/01/08 04:07:48;;;;;;;33.85;25.83;;;;;;;;;;10485689;27;20078;-63
2021/01/08 04:12:45;;;;;;;27.30;20.05;;;;;;;;;;10485132;27;20070;-63
2021/01/08 04:17:42;;;;;;;48.83;27.92;;;;;;;;;;10483845;27;20530;-63
2021/01/08 04:22:41;;;;;;;45.38;29.80;;;;;;;;;;10483137;27;20105;-63
2021/01/08 04:27:39;;;;;;;45.80;29.88;;;;;;;;;;10483709;27;20047;-64
2021/01/08 04:32:36;;;;;;;22.67;15.48;;;;;;;;;;10483971;27;20069;-63
2021/01/08 04:37:34;;;;;;;10.68;8.43;;;;;;;;;;10482318;27;20079;-63
2021/01/08 04:42:33;;;;;;;14.38;8.40;;;;;;;;;;10480811;27;20085;-63
2021/01/08 04:47:32;;;;;;;9.88;7.65;;;;;;;;;;10483770;27;20062;-64
2021/01/08 04:52:30;;;;;;;12.77;8.98;;;;;;;;;;10482956;27;20049;-63
2021/01/08 04:57:29;;;;;;;9.73;8.65;;;;;;;;;;10483596;27;20538;-63
2021/01/08 05:07:57;;;;;;;19.73;12.18;;;;;;;;;;10810170;23;20026;-64
2021/01/08 05:12:54;;;;;;;15.13;11.13;;;;;;;;;;10115032;28;20102;-65
2021/01/08 05:17:52;;;;;;;12.70;8.98;;;;;;;;;;10115087;28;20423;-64
2021/01/08 05:22:50;;;;;;;12.45;9.23;;;;;;;;;;10115061;28;20074;-64
2021/01/08 05:27:49;;;;;;;16.35;13.55;;;;;;;;;;10115177;28;20074;-64
2021/01/08 05:32:46;;;;;;;12.82;10.05;;;;;;;;;;10115055;28;20082;-64
2021/01/08 05:37:45;;;;;;;12.82;9.60;;;;;;;;;;10120544;28;20047;-64
2021/01/08 05:43:03;;;;;;;10.32;9.07;;;;;;;;;;10122374;28;20516;-66
2021/01/08 05:48:03;;;;;;;12.50;8.73;;;;;;;;;;10116588;28;20074;-63
2021/01/08 05:53:03;;;;;;;12.80;10.90;;;;;;;;;;10118502;28;20074;-65
2021/01/08 05:58:00;;;;;;;13.00;10.38;;;;;;;;;;10118103;28;20070;-65
2021/01/08 06:02:58;;;;;;;16.20;12.00;;;;;;;;;;10117417;28;20086;-64
2021/01/08 06:07:57;;;;;;;25.50;18.10;;;;;;;;;;10118620;28;20125;-64
2021/01/08 06:12:54;;;;;;;17.52;15.02;;;;;;;;;;10121078;28;20043;-64
2021/01/08 06:17:52;;;;;;;36.90;15.02;;;;;;;;;;10121602;28;20046;-65
2021/01/08 06:22:49;;;;;;;20.38;12.15;;;;;;;;;;10120769;28;20082;-65
2021/01/08 06:27:48;;;;;;;15.20;9.65;;;;;;;;;;10104095;28;20074;-65
2021/01/08 06:32:48;;;;;;;31.38;23.40;;;;;;;;;;10120518;28;20047;-65
2021/01/08 06:37:45;;;;;;;37.78;23.13;;;;;;;;;;10120982;28;20404;-65
2021/01/08 06:42:44;;;;;;;32.03;23.27;;;;;;;;;;10103336;28;20086;-65
2021/01/08 06:47:44;;;;;;;15.60;11.57;;;;;;;;;;10119733;28;20042;-65
2021/01/08 06:52:46;;;;;;;18.08;13.40;;;;;;;;;;10120374;28;20046;-65
2021/01/08 06:57:48;;;;;;;18.00;13.48;;;;;;;;;;10119902;28;20082;-65
2021/01/08 07:02:49;;;;;;;14.15;11.63;;;;;;;;;;10102753;28;20530;-65
2021/01/08 07:07:48;;;;;;;22.55;17.42;;;;;;;;;;10119330;28;20471;-65
2021/01/08 07:12:45;;;;;;;28.05;21.48;;;;;;;;;;10120019;28;20051;-65
2021/01/08 07:17:42;;;;;;;24.77;18.45;;;;;;;;;;10119465;28;20499;-65
2021/01/08 07:22:41;;;;;;;30.30;24.90;;;;;;;;;;10117945;28;20085;-65
2021/01/08 07:27:41;;;;;;;28.83;21.08;;;;;;;;;;10118898;28;20057;-65
2021/01/08 07:32:38;;;;;;;33.08;22.63;;;;;;;;;;10119477;28;20047;-65
2021/01/08 07:37:54;;;;;;;30.05;23.23;;;;;;;;;;10118853;28;20055;-65
2021/01/08 07:42:56;;;;;;;34.50;21.13;;;;;;;;;;10119613;28;20504;-64
2021/01/08 07:47:53;;;;;;;40.30;20.10;;;;;;;;;;10117546;28;20047;-65
2021/01/08 07:52:50;;;;;;;43.72;22.50;;;;;;;;;;10117337;28;20078;-65
2021/01/08 07:58:04;;;;;;;46.97;24.27;;;;;;;;;;10116546;28;20130;-65
2021/01/08 08:03:02;;;;;;;39.00;16.23;;;;;;;;;;10115183;28;20082;-65
2021/01/08 08:08:00;;;;;;;48.60;19.85;;;;;;;;;;10117001;28;20050;-65
2021/01/08 08:12:58;;;;;;;40.03;19.92;;;;;;;;;;10117631;28;20219;-64
2021/01/08 08:17:58;;;;;;;33.85;16.23;;;;;;;;;;10117542;28;20141;-64
2021/01/08 08:22:57;;;;;;;47.28;23.58;;;;;;;;;;10117170;28;20081;-64
2021/01/08 08:27:55;;;;;;;38.13;21.70;;;;;;;;;;10117090;28;20078;-63
2021/01/08 08:32:53;;;;;;;16.52;12.02;;;;;;;;;;10116773;28;20077;-64
2021/01/08 08:37:51;;;;;;;18.27;9.85;;;;;;;;;;10116616;28;20404;-64
2021/01/08 08:42:50;;;;;;;15.98;11.52;;;;;;;;;;10116320;28;20078;-64
2021/01/08 08:47:48;;;;;;;21.60;19.02;;;;;;;;;;10115902;28;20513;-64
2021/01/08 08:52:46;;;;;;;15.07;11.77;;;;;;;;;;10116118;28;20506;-64
2021/01/08 08:57:44;;;;;;;21.77;14.10;;;;;;;;;;10115698;28;20054;-64
2021/01/08 09:02:42;;;;;;;10.85;7.85;;;;;;;;;;10115167;28;20093;-64
2021/01/08 09:07:41;;;;;;;12.68;9.73;;;;;;;;;;10115322;28;20051;-65
2021/01/08 09:12:41;;;;;;;25.88;18.40;;;;;;;;;;10115050;28;20113;-65
2021/01/08 09:17:40;;;;;;;14.15;10.40;;;;;;;;;;10115489;28;20523;-65
2021/01/08 09:22:39;;;;;;;9.38;7.97;;;;;;;;;;10115354;28;20101;-65
2021/01/08 09:27:36;;;;;;;14.38;8.68;;;;;;;;;;10115521;28;20484;-64
2021/01/08 09:32:34;;;;;;;12.65;7.40;;;;;;;;;;10115189;28;20508;-65
2021/01/08 09:37:37;;;;;;;10.20;7.88;;;;;;;;;;10114406;28;20461;-65
2021/01/08 09:42:36;;;;;;;16.10;12.73;;;;;;;;;;10115127;28;20074;-65
2021/01/08 09:47:34;;;;;;;18.92;14.20;;;;;;;;;;10115064;28;20101;-64
2021/01/08 09:52:32;;;;;;;27.10;18.00;;;;;;;;;;10114728;28;20172;-66
2021/01/08 09:57:36;;;;;;;30.55;17.58;;;;;;;;;;10114901;28;20444;-66
2021/01/08 10:02:38;;;;;;;27.80;19.63;;;;;;;;;;10114359;28;20082;-66
2021/01/08 10:07:39;;;;;;;36.25;26.30;;;;;;;;;;10114626;28;20047;-66
2021/01/08 10:12:46;;;;;;;33.63;21.60;;;;;;;;;;10114408;28;20063;-66
2021/01/08 10:17:44;;;;;;;19.13;13.25;;;;;;;;;;10113857;28;20085;-66
2021/01/08 10:22:48;;;;;;;14.73;10.80;;;;;;;;;;10116441;28;20082;-65
2021/01/08 10:27:47;;;;;;;24.80;16.65;;;;;;;;;;10121529;28;20047;-65
2021/01/08 10:32:44;;;;;;;24.27;18.95;;;;;;;;;;10121071;28;20085;-66
2021/01/08 10:37:42;;;;;;;19.20;12.93;;;;;;;;;;10120863;28;20085;-66
2021/01/08 10:42:39;;;;;;;27.52;19.42;;;;;;;;;;10120648;28;20074;-64
2021/01/08 10:47:37;;;;;;;14.85;13.32;;;;;;;;;;10120495;28;20499;-64
2021/01/08 10:52:48;;;;;;;16.48;12.75;;;;;;;;;;10120422;28;20086;-66
2021/01/08 10:57:55;;;;;;;16.45;13.38;;;;;;;;;;10119935;28;20084;-64
2021/01/08 11:02:53;;;;;;;22.92;18.40;;;;;;;;;;10119931;28;20280;-66
2021/01/08 11:07:50;;;;;;;20.85;16.73;;;;;;;;;;10119912;28;20046;-65
2021/01/08 11:12:48;;;;;;;29.27;20.10;;;;;;;;;;10101753;28;20050;-65
2021/01/08 11:17:45;;;;;;;28.25;16.83;;;;;;;;;;10119545;28;20093;-66
2021/01/08 11:22:45;;;;;;;22.65;13.75;;;;;;;;;;10118973;28;20082;-66
2021/01/08 11:27:42;;;;;;;23.77;20.75;;;;;;;;;;10118602;28;20078;-65
2021/01/08 11:32:39;;;;;;;27.38;18.55;;;;;;;;;;10117838;28;20049;-65
2021/01/08 11:37:37;;;;;;;37.10;23.38;;;;;;;;;;10118144;28;20047;-66
2021/01/08 11:42:35;;;;;;;58.10;43.50;;;;;;;;;;10118453;28;20090;-65
2021/01/08 11:47:34;;;;;;;40.97;29.15;;;;;;;;;;10118700;28;20062;-65
2021/01/08 11:52:32;;;;;;;34.92;24.88;;;;;;;;;;10118157;28;20504;-65
2021/01/08 11:57:30;;;;;;;71.25;44.83;;;;;;;;;;10118342;28;20527;-63
2021/01/08 12:02:29;;;;;;;45.55;32.55;;;;;;;;;;10117575;28;20082;-65
2021/01/08 12:07:27;;;;;;;30.83;21.13;;;;;;;;;;10117011;28;20089;-65
2021/01/08 12:12:24;;;;;;;33.95;25.67;;;;;;;;;;10117734;28;20086;-65
2021/01/08 12:17:21;;;;;;;65.82;38.47;;;;;;;;;;10117044;28;20078;-65
2021/01/08 12:22:20;;;;;;;26.73;19.08;;;;;;;;;;10116913;28;20074;-65
2021/01/08 12:27:17;;;;;;;40.97;28.77;;;;;;;;;;10116816;28;20078;-64
2021/01/08 12:32:15;;;;;;;23.77;12.75;;;;;;;;;;10116369;28;20046;-65
2021/01/08 12:37:12;;;;;;;26.00;15.85;;;;;;;;;;10116133;28;20054;-64
2021/01/08 12:42:10;;;;;;;60.80;27.63;;;;;;;;;;10116464;28;20078;-64
2021/01/08 12:47:08;;;;;;;60.78;38.03;;;;;;;;;;10116091;28;20091;-64
2021/01/08 12:52:06;;;;;;;48.05;25.50;;;;;;;;;;10116037;28;20060;-65
2021/01/08 12:57:03;;;;;;;83.57;46.63;;;;;;;;;;10115854;28;20089;-65
2021/01/08 13:02:01;;;;;;;62.42;30.17;;;;;;;;;;10114723;28;20082;-65
2021/01/08 13:06:59;;;;;;;106.60;57.67;;;;;;;;;;10114898;28;20063;-65
2021/01/08 13:11:56;;;;;;;76.57;37.22;;;;;;;;;;10116195;28;20062;-65
2021/01/08 13:16:54;;;;;;;80.75;44.03;;;;;;;;;;10115193;28;20077;-65
2021/01/08 13:21:53;;;;;;;86.25;42.05;;;;;;;;;;10115628;28;20519;-64
2021/01/08 13:26:54;;;;;;;61.17;28.60;;;;;;;;;;10114562;28;20082;-64
2021/01/08 13:31:51;;;;;;;37.55;19.67;;;;;;;;;;10115178;28;20496;-65
2021/01/08 13:36:48;;;;;;;94.35;36.13;;;;;;;;;;10114890;28;20449;-64
2021/01/08 13:41:58;;;;;;;27.95;15.48;;;;;;;;;;10114328;28;20079;-65
2021/01/08 13:46:55;;;;;;;25.75;16.77;;;;;;;;;;10114606;28;20507;-65
2021/01/08 13:51:56;;;;;;;30.13;18.83;;;;;;;;;;10115356;28;20054;-64
2021/01/08 13:56:53;;;;;;;26.17;17.83;;;;;;;;;;10117018;28;20777;-65
2021/01/08 14:01:57;;;;;;;27.70;16.90;;;;;;;;;;10121867;28;20085;-65
2021/01/08 14:06:55;;;;;;;42.60;26.88;;;;;;;;;;10122096;28;20500;-65
2021/01/08 14:11:56;;;;;;;25.10;19.77;;;;;;;;;;10121467;28;20063;-65
2021/01/08 14:16:54;;;;;;;24.65;20.65;;;;;;;;;;10121495;28;20043;-65
2021/01/08 14:21:52;;;;;;;30.85;23.38;;;;;;;;;;10121290;28;20082;-63
2021/01/08 14:26:54;;;;;;;33.10;27.35;;;;;;;;;;10120325;28;20144;-65
2021/01/08 14:31:52;;;;;;;24.48;17.90;;;;;;;;;;10121146;28;20043;-65
2021/01/08 14:36:50;;;;;;;20.23;17.30;;;;;;;;;;10120877;28;20086;-64
2021/01/08 14:41:53;;;;;;;25.83;19.10;;;;;;;;;;10120180;28;20512;-64
2021/01/08 14:46:50;;;;;;;28.00;18.67;;;;;;;;;;10120401;28;20492;-65
2021/01/08 14:51:48;;;;;;;37.90;28.55;;;;;;;;;;10121229;28;20078;-64
2021/01/08 14:56:46;;;;;;;18.27;14.32;;;;;;;;;;10102930;28;20046;-64
2021/01/08 15:01:45;;;;;;;42.53;29.30;;;;;;;;;;10120973;28;20093;-64
2021/01/08 15:06:43;;;;;;;37.83;25.08;;;;;;;;;;10119828;28;20117;-64
2021/01/08 15:11:42;;;;;;;36.33;25.52;;;;;;;;;;10119971;28;20535;-64
2021/01/08 15:16:39;;;;;;;40.47;25.30;;;;;;;;;;10119732;28;20051;-63
2021/01/08 15:21:40;;;;;;;30.70;23.73;;;;;;;;;;10119532;28;20082;-64
2021/01/08 15:26:38;;;;;;;75.00;51.08;;;;;;;;;;10119775;28;20116;-65
2021/01/08 15:31:35;;;;;;;33.78;23.17;;;;;;;;;;10117751;28;20051;-65
2021/01/08 15:36:33;;;;;;;82.75;49.88;;;;;;;;;;10119986;28;20071;-64
2021/01/08 15:41:32;;;;;;;58.33;39.10;;;;;;;;;;10119641;28;20493;-64
2021/01/08 15:46:29;;;;;;;57.05;38.00;;;;;;;;;;10118549;28;20047;-63
2021/01/08 15:51:27;;;;;;;82.32;51.63;;;;;;;;;;10119168;28;20565;-64
2021/01/08 15:56:25;;;;;;;61.83;39.60;;;;;;;;;;10118090;28;20416;-66
2021/01/08 16:01:23;;;;;;;33.60;20.40;;;;;;;;;;10118245;28;20492;-64
2021/01/08 16:06:20;;;;;;;102.30;69.38;;;;;;;;;;10118564;28;20412;-64
2021/01/08 16:11:18;;;;;;;54.00;34.90;;;;;;;;;;10117893;28;20453;-64
2021/01/08 16:16:18;;;;;;;90.30;53.67;;;;;;;;;;10117512;28;20078;-65
2021/01/08 16:21:17;;;;;;;95.70;60.28;;;;;;;;;;10116457;28;20086;-65
2021/01/08 16:26:14;;;;;;;158.48;114.47;;;;;;;;;;10117816;28;20086;-64
2021/01/08 16:31:11;;;;;;;59.88;45.10;;;;;;;;;;10117591;28;20408;-65
2021/01/08 16:36:09;;;;;;;107.07;79.05;;;;;;;;;;10116811;28;20516;-64
2021/01/08 16:41:07;;;;;;;74.00;52.83;;;;;;;;;;10116366;28;20487;-65
2021/01/08 16:46:04;;;;;;;55.33;37.72;;;;;;;;;;10117027;28;20051;-64
2021/01/08 16:51:05;;;;;;;62.92;42.45;;;;;;;;;;10117034;28;20051;-65
2021/01/08 16:56:02;;;;;;;56.30;34.80;;;;;;;;;;10115948;28;20087;-65
2021/01/08 17:01:01;;;;;;;69.82;42.15;;;;;;;;;;10115287;28;20087;-65
2021/01/08 17:05:58;;;;;;;21.95;16.10;;;;;;;;;;10115791;28;20082;-65
2021/01/08 17:10:55;;;;;;;31.90;23.65;;;;;;;;;;10115548;28;20085;-65
2021/01/08 17:15:53;;;;;;;51.88;36.38;;;;;;;;;;10115546;28;20214;-65
2021/01/08 17:20:51;;;;;;;32.15;23.27;;;;;;;;;;10115355;28;20089;-64
2021/01/08 17:25:52;;;;;;;29.15;18.67;;;;;;;;;;10115868;28;20121;-64
2021/01/08 17:30:49;;;;;;;34.90;23.85;;;;;;;;;;10112894;28;20077;-64
2021/01/08 17:35:47;;;;;;;22.75;15.98;;;;;;;;;;10120876;28;20500;-64
2021/01/08 17:40:45;;;;;;;229.73;130.48;;;;;;;;;;10122490;28;20477;-63
2021/01/08 17:45:45;;;;;;;55.55;38.67;;;;;;;;;;10120768;28;20093;-63
2021/01/08 17:50:49;;;;;;;22.50;15.90;;;;;;;;;;10120809;28;20089;-63
2021/01/08 17:55:51;;;;;;;21.75;14.07;;;;;;;;;;10122518;28;20512;-64
2021/01/08 18:00:49;;;;;;;136.15;79.00;;;;;;;;;;10119325;28;20175;-64
2021/01/08 18:05:46;;;;;;;66.90;42.60;;;;;;;;;;10121055;28;20069;-63
2021/01/08 18:10:44;;;;;;;129.38;66.30;;;;;;;;;;10119516;28;20571;-64
2021/01/08 18:15:45;;;;;;;33.88;18.85;;;;;;;;;;10121827;28;20539;-63
2021/01/08 18:20:47;;;;;;;21.33;15.48;;;;;;;;;;10119453;28;20516;-64
2021/01/08 18:25:44;;;;;;;36.42;24.05;;;;;;;;;;10120986;28;20533;-63
2021/01/08 18:30:42;;;;;;;20.45;13.75;;;;;;;;;;10120234;28;20077;-64
2021/01/08 18:35:40;;;;;;;46.88;27.55;;;;;;;;;;10100890;28;20417;-64
2021/01/08 18:40:37;;;;;;;32.97;21.83;;;;;;;;;;10082168;29;20071;-63
2021/01/08 18:45:34;;;;;;;72.63;44.80;;;;;;;;;;10080881;28;20077;-63
2021/01/08 18:50:32;;;;;;;16.13;13.57;;;;;;;;;;10081639;29;20058;-64
2021/01/08 18:55:32;;;;;;;13.25;10.60;;;;;;;;;;10080905;29;20085;-63
2021/01/08 19:00:30;;;;;;;12.05;9.98;;;;;;;;;;10081048;29;20051;-63
2021/01/08 19:05:27;;;;;;;19.45;12.05;;;;;;;;;;10080800;29;20085;-63
2021/01/08 19:10:25;;;;;;;18.55;11.98;;;;;;;;;;10080348;28;20055;-65
2021/01/08 19:15:24;;;;;;;25.27;16.52;;;;;;;;;;10081116;29;20051;-65
2021/01/08 19:20:31;;;;;;;29.35;17.40;;;;;;;;;;10081234;28;20051;-65
2021/01/08 19:25:29;;;;;;;30.25;18.17;;;;;;;;;;10061866;28;20117;-64
2021/01/08 19:30:47;;;;;;;24.13;18.00;;;;;;;;;;10079933;28;20123;-63
2021/01/08 19:35:52;;;;;;;28.40;17.43;;;;;;;;;;10079331;28;20513;-62
2021/01/08 19:40:49;;;;;;;18.27;14.70;;;;;;;;;;10061667;29;20533;-63
2021/01/08 19:45:50;;;;;;;21.40;13.43;;;;;;;;;;10088113;28;20081;-63
2021/01/08 19:50:47;;;;;;;22.90;14.23;;;;;;;;;;10096101;28;20047;-62
2021/01/08 19:55:45;;;;;;;14.20;9.70;;;;;;;;;;10098140;28;20047;-64
2021/01/08 20:00:42;;;;;;;14.00;8.82;;;;;;;;;;10097213;28;20163;-63
2021/01/08 20:05:42;;;;;;;14.27;8.40;;;;;;;;;;10092120;28;20082;-64
2021/01/08 20:10:39;;;;;;;37.08;22.38;;;;;;;;;;10078673;28;20095;-63
2021/01/08 20:15:37;;;;;;;12.00;6.72;;;;;;;;;;10078140;29;20078;-62
2021/01/08 20:20:34;;;;;;;18.90;10.95;;;;;;;;;;10078391;29;20228;-63
2021/01/08 20:25:33;;;;;;;21.10;13.65;;;;;;;;;;10076774;29;20164;-63
2021/01/08 20:30:30;;;;;;;12.15;9.25;;;;;;;;;;10076898;29;20047;-63
2021/01/08 20:35:27;;;;;;;24.23;13.10;;;;;;;;;;10076618;29;20062;-63
2021/01/08 20:40:24;;;;;;;18.33;10.25;;;;;;;;;;10077328;29;20051;-63
2021/01/08 20:45:23;;;;;;;15.35;8.95;;;;;;;;;;10076880;29;20090;-64
2021/01/08 20:50:21;;;;;;;14.50;7.57;;;;;;;;;;10076495;29;20117;-62
2021/01/08 20:55:19;;;;;;;22.27;10.38;;;;;;;;;;10077136;28;20539;-65
2021/01/08 21:00:17;;;;;;;21.08;13.10;;;;;;;;;;10076548;29;20074;-65
2021/01/08 21:05:15;;;;;;;22.63;17.33;;;;;;;;;;10076546;28;20085;-64
2021/01/08 21:10:13;;;;;;;22.48;12.07;;;;;;;;;;10076578;28;20078;-63
2021/01/08 21:15:11;;;;;;;15.70;11.82;;;;;;;;;;10076661;28;20043;-63
2021/01/08 21:20:08;;;;;;;25.90;14.55;;;;;;;;;;10076234;29;20082;-63
2021/01/08 21:25:08;;;;;;;32.58;19.40;;;;;;;;;;10076320;29;20082;-63
2021/01/08 21:30:07;;;;;;;32.00;21.73;;;;;;;;;;10076091;29;20043;-63
2021/01/08 21:35:06;;;;;;;30.95;23.00;;;;;;;;;;10075850;29;20082;-61
2021/01/08 21:40:06;;;;;;;51.67;37.50;;;;;;;;;;10076317;29;20081;-64
2021/01/08 21:45:05;;;;;;;28.73;19.42;;;;;;;;;;10074971;28;20074;-64
2021/01/08 21:50:03;;;;;;;32.28;20.38;;;;;;;;;;10076182;28;20067;-64
2021/01/08 21:55:00;;;;;;;25.77;16.13;;;;;;;;;;10075892;29;20067;-64
2021/01/08 22:00:00;;;;;;;20.58;14.35;;;;;;;;;;10075776;29;20268;-64
2021/01/08 22:04:58;;;;;;;22.27;15.43;;;;;;;;;;10075635;29;20078;-64
2021/01/08 22:09:56;;;;;;;36.17;24.52;;;;;;;;;;10074372;28;20464;-64
2021/01/08 22:14:53;;;;;;;23.63;16.67;;;;;;;;;;10074935;28;20470;-64
2021/01/08 22:19:50;;;;;;;9.82;7.25;;;;;;;;;;10079553;28;20488;-63
2021/01/08 22:24:48;;;;;;;12.15;9.23;;;;;;;;;;10082322;29;20527;-62
2021/01/08 22:29:46;;;;;;;17.88;11.55;;;;;;;;;;10082335;29;20048;-63
2021/01/08 22:34:43;;;;;;;14.23;11.23;;;;;;;;;;10081460;28;20079;-63
2021/01/08 22:39:40;;;;;;;14.63;10.30;;;;;;;;;;10081545;29;20531;-63
2021/01/08 22:44:39;;;;;;;16.88;11.95;;;;;;;;;;10082399;29;20070;-63
2021/01/08 22:49:36;;;;;;;17.65;12.57;;;;;;;;;;10081331;29;20047;-63
2021/01/08 22:54:33;;;;;;;12.90;9.00;;;;;;;;;;10063729;29;20047;-64
2021/01/08 22:59:30;;;;;;;16.27;9.25;;;;;;;;;;10081084;29;20043;-63
2021/01/08 23:04:29;;;;;;;15.88;13.05;;;;;;;;;;10080980;29;20495;-64
2021/01/08 23:09:26;;;;;;;13.65;10.75;;;;;;;;;;10080598;29;20090;-63
2021/01/08 23:14:24;;;;;;;8.15;6.15;;;;;;;;;;10079986;29;20054;-63
2021/01/08 23:19:21;;;;;;;12.00;10.80;;;;;;;;;;10080397;29;20051;-62
2021/01/08 23:24:23;;;;;;;15.07;11.25;;;;;;;;;;10080027;29;20199;-63
2021/01/08 23:29:21;;;;;;;10.07;8.73;;;;;;;;;;10079369;28;20051;-63
2021/01/08 23:34:18;;;;;;;9.88;8.57;;;;;;;;;;10079836;29;20432;-63
2021/01/08 23:39:15;;;;;;;6.20;5.60;;;;;;;;;;10079698;29;20043;-63
2021/01/08 23:44:14;;;;;;;8.27;7.00;;;;;;;;;;10079039;29;20528;-63
2021/01/08 23:49:11;;;;;;;7.97;6.93;;;;;;;;;;10078663;29;20087;-63
2021/01/08 23:54:08;;;;;;;8.32;6.45;;;;;;;;;;10079114;29;20074;-63
2021/01/08 23:59:06;;;;;;;7.90;7.10;;;;;;;;;;10078886;29;20524;-63
